Weather History for Gadsden, AL

Change the Weather History Date:

Sunday, February 12, 2012

  Actual Average Record
Temperature  
Mean Temperature 29 °F -  
Max Temperature 39 °F 53 °F 79 °F (1932)
Min Temperature 19 °F 34 °F 19 °F (2012)
Degree Days  
Heating Degree Days 36    
Moisture  
Dew Point 9 °F    
Average Humidity 44    
Maximum Humidity 63    
Minimum Humidity 28    
Precipitation  
Precipitation 0.00 in - - ()
Sea Level Pressure  
Sea Level Pressure 30.44 in    
Wind  
Wind Speed 8 mph (NNW)    
Max Wind Speed 14 mph    
Max Gust Speed 18 mph    
Visibility 10 miles    
Events      
Averages and records for this station are not official NWS values.
T = Trace of Precipitation, MM = Missing Value Source: NWS Daily Summary

Daily Weather History Graph

Daily Weather History Graph

Search for Another Location

Airport:

Trip Planner

Search our weather history database for the weather conditions in past years. The results will help you decide how hot, cold, wet, or windy it might be!

Date:

Astronomy

Feb. 12, 2012 Rise Set
Actual Time 6:32 AM CST 5:25 PM CST
Civil Twilight 6:06 AM CST 5:50 PM CST
Nautical Twilight 5:37 AM CST 6:20 PM CST
Astronomical Twilight 5:08 AM CST 6:49 PM CST
Moon 11:01 PM CST (2/12) 9:09 AM CST (2/12)
Length of Visible Light 11h 44m
Length of Day
10h 52m
Waning Gibbous, 72% of the Moon is Illuminated
Feb 12
Waning Gibbous
Feb 14
Last Quarter
Feb 21
New
Feb 29
First Quarter
Mar 8
Full

Hourly Weather History & Observations

Time (CST) Temp. Windchill Dew Point Humidity Pressure Visibility Wind Dir Wind Speed Gust Speed Precip Events Conditions
12:15 AM 24.8 °F 16.9 °F 6.8 °F 46% 30.44 in 10.0 mi North 6.9 mph 17.3 mph N/A   Clear
12:35 AM 24.8 °F 12.9 °F 6.8 °F 46% 30.44 in 10.0 mi North 13.8 mph 18.4 mph N/A   Clear
1:15 AM 24.8 °F 19.1 °F 6.8 °F 46% 30.44 in 10.0 mi NNW 4.6 mph - N/A   Clear
1:35 AM 23.0 °F 15.8 °F 6.8 °F 50% 30.44 in 10.0 mi North 5.8 mph - N/A   Clear
1:55 AM 23.0 °F 14.7 °F 8.6 °F 54% 30.43 in 10.0 mi North 6.9 mph - N/A   Clear
2:15 AM 23.0 °F 13.1 °F 8.6 °F 54% 30.42 in 10.0 mi North 9.2 mph - N/A   Clear
2:35 AM 21.2 °F 10.1 °F 6.8 °F 54% 30.43 in 10.0 mi NNW 10.4 mph - N/A   Clear
2:55 AM 21.2 °F 10.9 °F 8.6 °F 58% 30.42 in 10.0 mi North 9.2 mph - N/A   Clear
3:15 AM 21.2 °F 11.7 °F 6.8 °F 54% 30.42 in 10.0 mi North 8.1 mph - N/A   Clear
3:35 AM 21.2 °F 11.7 °F 8.6 °F 58% 30.42 in 10.0 mi North 8.1 mph - N/A   Clear
3:55 AM 21.2 °F 11.7 °F 8.6 °F 58% 30.41 in 10.0 mi North 8.1 mph - N/A   Clear
4:15 AM 21.2 °F 12.6 °F 8.6 °F 58% 30.41 in 10.0 mi North 6.9 mph - N/A   Clear
4:35 AM 21.2 °F 14.9 °F 8.6 °F 58% 30.42 in 10.0 mi North 4.6 mph - N/A   Clear
4:55 AM 21.2 °F 12.6 °F 8.6 °F 58% 30.41 in 10.0 mi North 6.9 mph - N/A   Clear
5:15 AM 21.2 °F 13.6 °F 8.6 °F 58% 30.42 in 10.0 mi North 5.8 mph - N/A   Clear
5:35 AM 21.2 °F 13.6 °F 8.6 °F 58% 30.44 in 10.0 mi North 5.8 mph - N/A   Clear
5:55 AM 21.2 °F 13.6 °F 8.6 °F 58% 30.45 in 10.0 mi North 5.8 mph - N/A   Clear
6:15 AM 21.2 °F 13.6 °F 8.6 °F 58% 30.45 in 10.0 mi NNW 5.8 mph - N/A   Clear
6:35 AM 19.4 °F 10.4 °F 8.6 °F 63% 30.46 in 10.0 mi NW 6.9 mph - N/A   Clear
6:55 AM 21.2 °F 11.7 °F 8.6 °F 58% 30.46 in 10.0 mi NNW 8.1 mph - N/A   Clear
7:15 AM 21.2 °F 11.7 °F 8.6 °F 58% 30.46 in 10.0 mi North 8.1 mph - N/A   Clear
7:35 AM 23.0 °F 13.9 °F 8.6 °F 54% 30.47 in 10.0 mi NNW 8.1 mph - N/A   Clear
7:55 AM 24.8 °F 13.4 °F 8.6 °F 50% 30.47 in 10.0 mi NNW 12.7 mph - N/A   Clear
8:15 AM 24.8 °F 14.0 °F 8.6 °F 50% 30.48 in 10.0 mi NNW 11.5 mph - N/A   Clear
8:35 AM 26.6 °F 16.8 °F 8.6 °F 47% 30.48 in 10.0 mi North 10.4 mph - N/A   Clear
8:55 AM 26.6 °F 18.2 °F 8.6 °F 47% 30.49 in 10.0 mi NW 8.1 mph - N/A   Clear
9:15 AM 28.4 °F 21.2 °F 8.6 °F 43% 30.49 in 10.0 mi North 6.9 mph - N/A   Clear
9:35 AM 28.4 °F 21.2 °F 8.6 °F 43% 30.49 in 10.0 mi NW 6.9 mph - N/A   Clear
9:55 AM 30.2 °F 24.3 °F 8.6 °F 40% 30.50 in 10.0 mi WNW 5.8 mph - N/A   Clear
10:15 AM 30.2 °F 25.4 °F 8.6 °F 40% 30.49 in 10.0 mi North 4.6 mph - N/A   Clear
10:35 AM 32.0 °F 26.4 °F 8.6 °F 38% 30.49 in 10.0 mi North 5.8 mph - N/A   Clear
10:55 AM 32.0 °F 24.8 °F 8.6 °F 38% 30.49 in 10.0 mi WNW 8.1 mph - N/A   Clear
11:15 AM 33.8 °F - 8.6 °F 35% 30.48 in 10.0 mi Calm Calm - N/A   Clear
11:35 AM 33.8 °F 28.6 °F 8.6 °F 35% 30.47 in 10.0 mi North 5.8 mph - N/A   Clear
11:55 AM 35.6 °F 30.7 °F 10.4 °F 35% 30.46 in 10.0 mi WNW 5.8 mph - N/A   Clear
12:15 PM 35.6 °F 28.6 °F 8.6 °F 33% 30.45 in 10.0 mi West 9.2 mph - N/A   Clear
12:35 PM 35.6 °F 30.7 °F 8.6 °F 33% 30.45 in 10.0 mi WNW 5.8 mph - N/A   Clear
12:56 PM 37.4 °F 30.8 °F 10.4 °F 33% 30.44 in 10.0 mi NNW 9.2 mph - N/A   Clear
1:15 PM 37.4 °F 30.8 °F 10.4 °F 33% 30.42 in 10.0 mi West 9.2 mph - N/A   Clear
1:35 PM 37.4 °F 32.1 °F 10.4 °F 33% 30.42 in 10.0 mi North 6.9 mph - N/A   Clear
1:55 PM 39.2 °F 35.0 °F 8.6 °F 28% 30.42 in 10.0 mi West 5.8 mph - N/A   Clear
2:15 PM 39.2 °F 32.5 °F 10.4 °F 31% 30.41 in 10.0 mi North 10.4 mph - N/A   Clear
2:35 PM 39.2 °F 32.5 °F 10.4 °F 31% 30.41 in 10.0 mi West 10.4 mph - N/A   Clear
2:55 PM 39.2 °F 33.6 °F 10.4 °F 31% 30.41 in 10.0 mi North 8.1 mph - N/A   Clear
3:15 PM 39.2 °F 33.0 °F 10.4 °F 31% 30.40 in 10.0 mi NNW 9.2 mph - N/A   Clear
3:35 PM 39.2 °F 34.2 °F 10.4 °F 31% 30.40 in 10.0 mi NNW 6.9 mph - N/A   Clear
3:55 PM 39.2 °F 34.2 °F 10.4 °F 31% 30.40 in 10.0 mi West 6.9 mph - N/A   Clear
4:15 PM 39.2 °F 33.6 °F 10.4 °F 31% 30.40 in 10.0 mi West 8.1 mph - N/A   Clear
4:35 PM 37.4 °F 31.4 °F 10.4 °F 33% 30.40 in 10.0 mi NNW 8.1 mph - N/A   Clear
4:55 PM 37.4 °F 32.1 °F 10.4 °F 33% 30.39 in 10.0 mi NW 6.9 mph - N/A   Clear
5:15 PM 35.6 °F 30.7 °F 10.4 °F 35% 30.39 in 10.0 mi WNW 5.8 mph - N/A   Clear
5:35 PM 35.6 °F 31.7 °F 10.4 °F 35% 30.38 in 10.0 mi NW 4.6 mph - N/A   Clear
5:55 PM 33.8 °F 30.8 °F 10.4 °F 38% 30.38 in 10.0 mi NNW 3.5 mph - N/A   Clear
6:15 PM 33.8 °F 30.8 °F 10.4 °F 38% 30.38 in 10.0 mi NW 3.5 mph - N/A   Clear
6:35 PM 32.0 °F 27.5 °F 12.2 °F 44% 30.37 in 10.0 mi North 4.6 mph - N/A   Clear
6:55 PM 30.2 °F 26.7 °F 12.2 °F 47% 30.37 in 10.0 mi NNW 3.5 mph - N/A   Clear
7:15 PM 30.2 °F 25.4 °F 12.2 °F 47% 30.37 in 10.0 mi NW 4.6 mph - N/A   Clear
7:35 PM 26.6 °F 22.6 °F 15.8 °F 64% 30.36 in 10.0 mi West 3.5 mph - N/A   Clear
7:55 PM 26.6 °F - 15.8 °F 64% 30.36 in 10.0 mi Calm Calm - N/A   Clear
8:15 PM 26.6 °F - 15.8 °F 64% 30.36 in 10.0 mi Calm Calm - N/A   Clear
8:35 PM 26.6 °F - 15.8 °F 64% 30.36 in 10.0 mi Calm Calm - N/A   Clear
8:55 PM 24.8 °F - 15.8 °F 69% 30.36 in 10.0 mi Calm Calm - N/A   Clear
9:15 PM 26.6 °F 20.0 °F 15.8 °F 64% 30.36 in 10.0 mi NNW 5.8 mph - N/A   Clear
9:35 PM 26.6 °F - 15.8 °F 64% 30.36 in 10.0 mi Calm Calm - N/A   Clear
9:55 PM 26.6 °F - 17.6 °F 69% 30.36 in 10.0 mi Calm Calm - N/A   Clear
10:15 PM 24.8 °F - 15.8 °F 69% 30.36 in 10.0 mi Calm Calm - N/A   Clear
10:35 PM 23.0 °F - 17.6 °F 80% 30.36 in 10.0 mi Calm Calm - N/A   Clear
10:55 PM 24.8 °F - 15.8 °F 69% 30.35 in 10.0 mi Calm Calm - N/A   Clear
11:15 PM 24.8 °F - 15.8 °F 69% 30.34 in 10.0 mi Calm Calm - N/A   Clear
11:55 PM 21.2 °F - 17.6 °F 86% 30.34 in 10.0 mi Calm Calm - N/A   Clear